Latest Weather Observations for Roebourne Airport

IDW60801

Issued at 9:32 pm WST Sunday 30 August 2015 (issued every 30 minutes, with the page automatically refreshed every 10 minutes)

About weather observations | Map of weather stations | Latest weather observations for WA | Other Formats
Station Details ID: 004090 Name: ROEBOURNE AERO Lat: -20.76 Lon: 117.16 Height: 10.7 m
Data from the previous 72 hours. | See also: Recent months at Roebourne Airport
Date/Time
WST
Temp
°C
App
Temp
°C
Dew
Point
Rel
Hum
%
Delta-T
°C
Wind Press
QNH
hPa
Press
MSL
hPa
Rain
since 9 am
mm
Dir
 
Spd
km/h
Gust
km/h
Spd
kts
Gust
kts
30/09:30pm 22.7 18.9 13.7 56 5.2 WSW 26 35 14 19 1016.7 1016.6 0.0
30/09:00pm 23.1 19.2 13.3 54 5.7 WSW 26 37 14 20 1016.6 1016.5 0.0
30/08:30pm 23.3 19.4 12.0 49 6.4 W 24 30 13 16 1016.3 1016.2 0.0
30/08:00pm 23.0 19.3 13.8 56 5.4 W 26 35 14 19 1016.0 1015.9 0.0
30/07:30pm 23.4 19.2 12.4 50 6.3 W 26 37 14 20 1015.7 1015.6 0.0
30/07:00pm 23.5 19.4 12.8 51 6.1 WNW 26 32 14 17 1015.4 1015.3 0.0
30/06:30pm 24.0 18.6 12.3 48 6.7 WNW 32 39 17 21 1015.1 1015.0 0.0
30/06:00pm 25.0 18.7 11.2 42 7.8 WNW 35 44 19 24 1015.0 1014.9 0.0
30/05:30pm 26.3 20.3 10.0 36 9.0 WNW 32 43 17 23 1014.8 1014.7 0.0
30/05:00pm 27.2 19.0 6.6 27 10.8 WNW 39 48 21 26 1014.7 1014.6 0.0
30/04:30pm 27.9 19.5 7.2 27 11.0 WNW 41 48 22 26 1014.6 1014.5 0.0
30/04:00pm 29.0 21.8 9.2 29 11.0 WNW 37 44 20 24 1014.4 1014.3 0.0
30/03:30pm 29.4 22.7 9.5 29 11.1 WNW 35 46 19 25 1014.5 1014.4 0.0
30/03:00pm 30.0 23.5 9.0 27 11.7 NW 33 43 18 23 1014.6 1014.5 0.0
30/02:30pm 30.8 25.3 9.1 26 12.1 NW 28 39 15 21 1014.8 1014.7 0.0
30/02:00pm 30.4 26.5 9.3 27 11.8 NNW 20 32 11 17 1015.1 1015.0 0.0
30/01:47pm 30.5 26.4 8.8 26 12.1 NNE 20 37 11 20 1014.7 1014.6 0.0
30/01:30pm 31.1 28.0 1.4 15 14.6 SSW 7 17 4 9 1015.5 1015.4 0.0
30/01:00pm 30.6 25.7 1.9 16 14.2 SW 17 28 9 15 1015.9 1015.8 0.0
30/12:30pm 30.3 25.7 1.7 16 14.1 W 15 24 8 13 1016.3 1016.2 0.0
30/12:00pm 30.0 25.1 2.3 17 13.7 SW 17 30 9 16 1016.9 1016.8 0.0
30/11:30am 29.5 25.1 2.7 18 13.4 WNW 15 22 8 12 1017.2 1017.1 0.0
30/11:00am 29.1 26.1 3.9 20 12.8 WNW 9 19 5 10 1017.8 1017.7 0.0
30/10:30am 29.6 25.0 5.6 22 12.6 SSW 19 32 10 17 1018.2 1018.1 0.0
30/10:00am 28.5 24.5 6.6 25 11.6 S 17 24 9 13 1018.4 1018.3 0.0
30/09:30am 27.4 22.7 6.2 26 11.1 S 20 28 11 15 1018.4 1018.3 0.0
30/09:00am 26.3 22.5 7.4 30 10.0 SSW 17 24 9 13 1018.2 1018.1 0.0
30/08:30am 25.0 21.3 8.1 34 9.0 SSW 17 22 9 12 1018.1 1018.0 0.0
30/08:00am 22.7 19.8 9.5 43 7.1 SSW 15 20 8 11 1017.7 1017.6 0.0
30/07:30am 20.1 17.0 10.2 53 5.3 SW 17 19 9 10 1017.3 1017.2 0.0
30/07:00am 18.6 15.9 10.4 59 4.4 SW 15 17 8 9 1016.8 1016.7 0.0
30/06:30am 16.8 14.1 10.2 65 3.5 SW 15 17 8 9 1016.4 1016.3 0.0
30/06:00am 16.6 14.3 10.5 67 3.2 SW 13 15 7 8 1016.1 1016.0 0.0
30/05:30am 17.8 14.8 10.7 63 3.8 SW 17 20 9 11 1015.7 1015.6 0.0
30/05:00am 18.0 15.2 11.3 65 3.6 SW 17 20 9 11 1015.5 1015.4 0.0
30/04:30am 18.2 15.2 12.0 67 3.4 SW 19 22 10 12 1015.4 1015.3 0.0
30/04:00am 18.4 15.5 12.4 68 3.3 SW 19 24 10 13 1015.3 1015.2 0.0
30/03:30am 18.7 15.8 12.9 69 3.3 SW 20 26 11 14 1015.1 1015.0 0.0
30/03:00am 18.5 16.0 13.6 73 2.8 SW 19 24 10 13 1015.1 1015.0 0.0
30/02:30am 18.6 16.4 14.3 76 2.5 WSW 19 24 10 13 1015.1 1015.0 0.0
30/02:00am 18.6 17.0 14.9 79 2.2 SW 17 20 9 11 1015.3 1015.2 0.0
30/01:30am 19.1 17.6 15.4 79 2.2 WSW 17 24 9 13 1015.6 1015.5 0.0
30/01:00am 19.3 17.9 15.6 79 2.2 WSW 17 24 9 13 1015.7 1015.6 0.0
30/12:30am 19.6 17.9 15.7 78 2.3 WSW 19 26 10 14 1015.8 1015.7 0.0
30/12:00am 19.6 18.2 15.5 77 2.4 WSW 17 22 9 12 1016.0 1015.9 0.0
 
Date/Time
WST
Temp
°C
App
Temp
°C
Dew
Point
Rel
Hum
%
Delta-T
°C
Wind Press
QNH
hPa
Press
MSL
hPa
Rain
since 9 am
mm
Dir
 
Spd
km/h
Gust
km/h
Spd
kts
Gust
kts
29/11:30pm 19.7 17.7 15.4 76 2.5 W 20 28 11 15 1016.1 1016.0 0.0
29/11:00pm 19.9 17.8 15.3 75 2.7 W 20 26 11 14 1016.2 1016.1 0.0
29/10:30pm 19.7 17.6 15.1 75 2.7 W 20 24 11 13 1016.3 1016.2 0.0
29/10:00pm 20.1 18.1 15.5 75 2.7 W 20 26 11 14 1016.4 1016.3 0.0
29/09:30pm 20.5 17.8 15.7 74 2.9 W 24 32 13 17 1016.4 1016.3 0.0
29/09:00pm 20.9 18.2 15.7 72 3.1 W 24 30 13 16 1016.2 1016.1 0.0
29/08:30pm 21.3 18.3 15.8 71 3.3 W 26 33 14 18 1016.1 1016.0 0.0
29/08:00pm 21.7 19.1 16.0 70 3.4 W 24 35 13 19 1015.6 1015.5 0.0
29/07:30pm 21.8 19.2 15.9 69 3.5 WNW 24 32 13 17 1015.2 1015.1 0.0
29/07:00pm 22.2 19.8 15.5 66 4.0 WNW 22 32 12 17 1014.9 1014.8 0.0
29/06:30pm 22.6 19.1 15.4 64 4.3 WNW 28 37 15 20 1014.7 1014.6 0.0
29/06:00pm 23.4 19.5 14.4 57 5.3 WNW 28 39 15 21 1014.2 1014.1 0.0
29/05:30pm 24.2 20.5 14.9 56 5.6 NW 28 37 15 20 1014.0 1013.9 0.0
29/05:00pm 25.2 21.4 14.6 51 6.3 NW 28 35 15 19 1013.9 1013.8 0.0
29/04:30pm 25.7 21.4 14.5 50 6.7 NW 30 39 16 21 1013.7 1013.6 0.0
29/04:00pm 26.8 22.9 14.5 46 7.4 NW 28 39 15 21 1013.4 1013.4 0.0
29/03:30pm 27.1 22.7 14.1 44 7.8 NW 30 43 16 23 1013.7 1013.6 0.0
29/03:00pm 28.3 24.2 13.8 41 8.6 NW 28 37 15 20 1013.7 1013.6 0.0
29/02:30pm 27.9 23.7 12.3 38 9.1 NW 26 35 14 19 1014.0 1013.9 0.0
29/02:00pm 28.4 24.6 12.3 37 9.4 NW 24 35 13 19 1014.1 1014.0 0.0
29/01:30pm 29.0 25.2 12.4 36 9.7 NW 24 37 13 20 1014.5 1014.4 0.0
29/01:00pm 28.1 24.4 11.6 36 9.5 WNW 22 35 12 19 1015.1 1015.0 0.0
29/12:30pm 27.9 24.9 11.9 37 9.2 NW 19 30 10 16 1015.6 1015.5 0.0
29/12:00pm 27.7 25.1 12.1 38 9.0 WNW 17 30 9 16 1015.9 1015.8 0.0
29/11:30am 27.2 24.1 10.4 35 9.4 W 17 32 9 17 1016.4 1016.3 0.0
29/11:00am 26.8 23.3 10.9 37 9.0 W 20 28 11 15 1016.9 1016.8 0.0
29/10:30am 26.3 23.1 11.2 38 8.6 W 19 24 10 13 1017.5 1017.4 0.0
29/10:00am 25.2 23.0 12.1 44 7.5 WSW 15 20 8 11 1017.7 1017.6 0.0
29/09:30am 24.7 22.5 12.0 45 7.2 WSW 15 28 8 15 1017.9 1017.8 0.0
29/09:00am 23.6 21.4 12.0 48 6.6 SW 15 19 8 10 1018.0 1017.9 0.0
29/08:30am 22.4 21.4 13.5 57 5.1 SSW 11 19 6 10 1017.6 1017.5 0.0
29/08:00am 21.0 19.9 14.4 66 3.8 SW 13 17 7 9 1017.4 1017.3 0.0
29/07:30am 19.6 19.4 14.8 74 2.8 WSW 9 13 5 7 1017.0 1016.9 0.0
29/07:00am 17.5 17.6 15.5 88 1.2 SW 9 11 5 6 1016.6 1016.5 0.0
29/06:30am 16.3 15.7 14.7 90 0.9 SW 11 13 6 7 1016.5 1016.4 0.0
29/06:00am 16.1 15.8 14.3 89 1.0 SW 9 9 5 5 1016.2 1016.1 0.0
29/05:30am 17.0 16.8 14.8 87 1.3 SW 9 13 5 7 1016.0 1015.9 0.0
29/05:00am 17.6 16.9 15.4 87 1.3 SW 13 15 7 8 1015.9 1015.8 0.0
29/04:30am 17.7 17.4 15.5 87 1.3 SW 11 17 6 9 1015.8 1015.7 0.0
29/04:00am 17.8 17.1 15.4 86 1.4 SW 13 17 7 9 1015.7 1015.6 0.0
29/03:30am 18.1 17.4 15.5 85 1.5 SW 13 19 7 10 1015.6 1015.5 0.0
29/03:00am 18.3 17.6 15.4 83 1.7 WSW 13 17 7 9 1015.8 1015.7 0.0
29/02:30am 18.4 17.4 15.5 83 1.7 SW 15 17 8 9 1016.2 1016.1 0.0
29/02:00am 18.2 17.5 15.5 84 1.6 SW 13 15 7 8 1016.4 1016.3 0.0
29/01:30am 18.5 17.9 15.6 83 1.7 SW 13 19 7 10 1016.5 1016.4 0.0
29/01:00am 18.9 18.4 15.8 82 1.8 WSW 13 15 7 8 1016.8 1016.7 0.0
29/12:30am 19.2 19.2 16.2 83 1.8 WSW 11 15 6 8 1017.0 1016.9 0.0
29/12:00am 18.1 18.7 15.2 83 1.7 W 6 9 3 5 1017.1 1017.0 0.0
 
Date/Time
WST
Temp
°C
App
Temp
°C
Dew
Point
Rel
Hum
%
Delta-T
°C
Wind Press
QNH
hPa
Press
MSL
hPa
Rain
since 9 am
mm
Dir
 
Spd
km/h
Gust
km/h
Spd
kts
Gust
kts
28/11:30pm 18.8 18.5 15.5 81 1.9 W 11 11 6 6 1017.4 1017.3 0.0
28/11:00pm 19.6 19.4 15.7 78 2.3 W 11 15 6 8 1017.4 1017.3 0.0
28/10:30pm 19.9 20.3 16.2 79 2.2 WSW 9 11 5 6 1017.5 1017.4 0.0
28/10:00pm 20.2 20.2 16.2 78 2.4 W 11 13 6 7 1017.7 1017.6 0.0
28/09:30pm 18.8 19.9 14.5 76 2.5 WNW 2 7 1 4 1017.7 1017.6 0.0
28/09:00pm 20.1 20.5 15.3 74 2.8 WNW 7 9 4 5 1017.5 1017.4 0.0
28/08:30pm 20.9 21.1 15.7 72 3.1 WNW 9 13 5 7 1017.1 1017.0 0.0
28/08:00pm 21.3 21.5 15.8 71 3.3 WNW 9 11 5 6 1016.7 1016.6 0.0
28/07:30pm 21.6 21.9 16.1 71 3.3 WNW 9 11 5 6 1016.3 1016.2 0.0
28/07:00pm 22.5 22.2 16.5 69 3.6 NW 13 17 7 9 1016.0 1015.9 0.0
28/06:30pm 22.9 22.1 16.0 65 4.2 NW 15 20 8 11 1015.6 1015.5 0.0
28/06:00pm 23.7 22.0 15.7 61 4.8 WNW 19 24 10 13 1015.1 1015.0 0.0
28/05:30pm 24.9 23.1 16.1 58 5.4 NW 20 26 11 14 1014.8 1014.7 0.0
28/05:00pm 25.6 23.2 15.3 53 6.2 WNW 22 28 12 15 1014.6 1014.5 0.0
28/04:30pm 26.2 23.9 15.6 52 6.4 NNW 22 32 12 17 1014.4 1014.3 0.0
28/04:00pm 26.5 24.4 15.2 49 6.8 NW 20 28 11 15 1014.4 1014.3 0.0
28/03:30pm 26.8 24.4 15.5 50 6.9 NNW 22 33 12 18 1014.4 1014.3 0.0
28/03:00pm 27.2 24.7 15.2 47 7.3 NW 22 30 12 16 1014.6 1014.5 0.0
28/02:30pm 27.7 25.3 15.4 47 7.5 NW 22 32 12 17 1014.7 1014.6 0.0
28/02:00pm 28.3 26.5 15.6 46 7.8 NW 19 28 10 15 1014.6 1014.5 0.0
28/01:30pm 28.2 26.2 15.5 46 7.8 NW 20 33 11 18 1015.0 1014.9 0.0
28/01:00pm 28.7 26.6 15.2 43 8.2 NNW 20 30 11 16 1015.3 1015.2 0.0
28/12:30pm 27.6 25.3 14.6 45 7.8 NNW 20 28 11 15 1015.7 1015.6 0.0
28/12:00pm 27.8 25.7 15.1 46 7.7 NNW 20 32 11 17 1016.1 1016.0 0.0
28/11:30am 28.0 27.3 15.3 46 7.7 WNW 13 28 7 15 1016.2 1016.1 0.0
28/11:00am 27.2 26.8 15.2 47 7.3 WNW 11 19 6 10 1016.5 1016.4 0.0
28/10:30am 26.2 25.8 15.3 51 6.6 W 11 19 6 10 1017.1 1017.0 0.0
28/10:00am 25.4 25.4 15.1 53 6.2 W 9 17 5 9 1017.3 1017.2 0.0
28/09:30am 24.1 23.1 14.5 55 5.7 WSW 13 19 7 10 1017.5 1017.4 0.0
28/09:00am 23.3 21.7 15.1 60 4.9 WSW 17 24 9 13 1017.6 1017.5 0.0
28/08:30am 22.4 22.8 16.2 68 3.8 WSW 9 11 5 6 1017.3 1017.2 0.0
28/08:00am 20.1 22.4 16.7 81 2.1 CALM 0 0 0 0 1017.1 1017.0 0.0
28/07:30am 17.5 18.7 15.8 90 1.0 S 4 7 2 4 1016.7 1016.6 0.0
28/07:00am 14.5 14.2 13.4 93 0.6 S 7 9 4 5 1016.4 1016.3 0.0
28/06:30am 13.0 13.4 11.2 89 0.9 CALM 0 6 0 3 1016.2 1016.1 0.0
28/06:00am 14.8 14.5 13.2 90 0.9 W 7 9 4 5 1015.9 1015.8 0.0
28/05:30am 16.2 15.4 15.1 93 0.6 WNW 13 13 7 7 1015.6 1015.5 0.0
28/05:00am 15.3 14.8 13.7 90 0.9 W 9 11 5 6 1015.3 1015.2 0.0
28/04:30am 15.7 15.7 14.1 90 0.9 WNW 7 9 4 5 1015.1 1015.0 0.0
28/04:00am 16.1 16.0 13.9 87 1.2 SW 7 11 4 6 1015.1 1015.0 0.0
28/03:30am 17.1 17.0 14.9 87 1.3 WSW 9 9 5 5 1015.0 1014.9 0.0
28/03:00am 17.1 16.9 15.6 91 0.9 SW 11 13 6 7 1015.2 1015.1 0.0
28/02:30am 16.2 15.6 14.7 91 0.9 WSW 11 13 6 7 1015.4 1015.3 0.0
28/02:00am 16.2 15.7 13.7 85 1.4 SW 9 11 5 6 1015.5 1015.4 0.0
28/01:30am 17.4 17.9 15.6 89 1.1 W 7 9 4 5 1015.6 1015.5 0.0
28/01:00am 16.5 16.7 14.3 87 1.3 WSW 6 7 3 4 1015.8 1015.7 0.0
28/12:30am 17.5 17.6 14.4 82 1.8 W 7 9 4 5 1016.1 1016.0 0.0
28/12:00am 19.0 19.4 16.2 84 1.7 W 9 11 5 6 1016.3 1016.2 0.0
 
Date/Time
WST
Temp
°C
App
Temp
°C
Dew
Point
Rel
Hum
%
Delta-T
°C
Wind Press
QNH
hPa
Press
MSL
hPa
Rain
since 9 am
mm
Dir
 
Spd
km/h
Gust
km/h
Spd
kts
Gust
kts
27/11:30pm 19.6 19.8 16.8 84 1.7 W 11 15 6 8 1016.4 1016.3 0.0
27/11:00pm 19.3 19.5 15.8 80 2.1 W 9 11 5 6 1016.5 1016.4 0.0
27/10:30pm 20.5 20.3 16.7 79 2.3 W 13 17 7 9 1016.4 1016.3 0.0
27/10:00pm 20.0 20.0 16.2 79 2.3 W 11 15 6 8 1016.5 1016.4 0.0

Other Formats:

Comma delimited format used in spreadsheet applications
http://www.bom.gov.au/fwo/IDW60801/IDW60801.94308.axf

JavaScript Object Notation format (JSON) in row-major order
http://www.bom.gov.au/fwo/IDW60801/IDW60801.94308.json